Bookmark and Share
Track history (hours):
 

Laguepe

Last reported at 2014-Apr-15 17:29 UTC. Time now 2014-Apr-17 12:34 UTC.
Position N 43°23' E 004°48'.

Length 81 m; draft 2.8 m.

Type: Ship. MMSI: 256681000.

NotesDate/timePositionNaut miles runAvg speedWind from/ knotsBaromVisibWave heightAir tempDewpointWater temp
2014-Apr-15 17:29N 43°23' E 004°48'2 2.2
2014-Apr-15 16:33N 43°23' E 004°51'6 6.2
2014-Apr-15 15:33N 43°21' E 004°59'6 5.6
2014-Apr-15 14:33N 43°15' E 005°01'5 2.5
2014-Apr-15 12:32N 43°11' E 004°59'7 6.7
2014-Apr-15 11:33N 43°08' E 004°51'7 7.4
2014-Apr-15 10:34N 43°02' E 004°45'6 5.8
2014-Apr-15 09:33N 42°57' E 004°41'5 4.7
2014-Apr-15 08:34N 42°53' E 004°37'8 4.0
2014-Apr-15 06:33N 42°47' E 004°29'30 5.1
2014-Apr-15 00:33N 42°24' E 004°02'8 7.7
2014-Apr-14 23:34N 42°19' E 003°55'8 8.3
2014-Apr-14 22:33N 42°12' E 003°48'8 4.1
2014-Apr-14 20:34N 42°06' E 003°40'8 8.3
2014-Apr-14 19:33N 42°00' E 003°32'9 8.9
2014-Apr-14 18:32N 41°54' E 003°24'18 9.1
2014-Apr-14 16:32N 41°43' E 003°04'9 9.0
2014-Apr-14 15:30N 41°38' E 002°54'9 9.3
2014-Apr-14 14:33N 41°33' E 002°44'9 9.1
2014-Apr-14 13:33N 41°28' E 002°34'20 0.4
2014-Apr-12 12:28N 41°18' E 002°11'8 5.7
2014-Apr-12 11:06N 41°21' E 002°20'5 8.7
2014-Apr-12 10:28N 41°24' E 002°26'18 8.6
2014-Apr-12 08:23N 41°34' E 002°46'8 9.4
2014-Apr-12 07:33N 41°38' E 002°55'9 8.9
2014-Apr-12 06:33N 41°43' E 003°05'27 9.1
2014-Apr-12 03:33N 42°02' E 003°32'20 9.8
2014-Apr-12 01:33N 42°18' E 003°48'10 9.6
2014-Apr-12 00:33N 42°25' E 003°56'28 9.3
2014-Apr-11 21:29N 42°47' E 004°20'8 8.7
2014-Apr-11 20:33N 42°54' E 004°27'8 8.3
2014-Apr-11 19:33N 43°00' E 004°34'17 8.4
2014-Apr-11 17:31N 43°14' E 004°49'7 7.7
2014-Apr-11 16:33N 43°19' E 004°55'5 5.1
2014-Apr-11 15:33N 43°23' E 004°51'2 1.7
2014-Apr-11 14:30N 43°23' E 004°48'0 0.0
2014-Apr-11 13:15N 43°23' E 004°48'  
2014-Apr-08 04:16N 43°23' E 004°49'2 3.1
2014-Apr-08 03:33N 43°23' E 004°52'7 6.9
2014-Apr-08 02:33N 43°20' E 004°59'8 7.5
2014-Apr-08 01:33N 43°12' E 005°03'30 7.6
2014-Apr-07 21:33N 42°42' E 005°04'8 7.6
2014-Apr-07 20:33N 42°34' E 005°03'7 7.5
2014-Apr-07 19:33N 42°27' E 005°03'13 6.5
2014-Apr-07 17:33N 42°14' E 005°04'7 6.5
2014-Apr-07 16:33N 42°07' E 005°05'7 6.8
2014-Apr-07 15:34N 42°01' E 005°06'8 6.6
2014-Apr-07 14:21N 41°53' E 005°05'7 6.7
2014-Apr-07 13:14N 41°45' E 005°05'5 7.5
2014-Apr-07 12:32N 41°40' E 005°05'8 7.0
2014-Apr-07 11:27N 41°32' E 005°05'7 7.1
2014-Apr-07 10:31N 41°26' E 005°05'21 6.6
2014-Apr-07 07:24N 41°05' E 005°06'6 7.0
2014-Apr-07 06:31N 40°59' E 005°06'  

Dump ship's entire track history

sailing weather and tide predictions

Laguepe — 9HAI9 — position and weather